createdAt,value
2022-10-03T00:01:02.994Z,16.60
2022-10-03T00:03:51.068Z,16.50
2022-10-03T00:06:55.904Z,16.40
2022-10-03T00:09:57.416Z,16.30
2022-10-03T00:12:33.858Z,16.40
2022-10-03T00:15:16.186Z,16.50
2022-10-03T00:18:12.319Z,16.50
2022-10-03T00:20:39.745Z,16.40
2022-10-03T00:23:47.773Z,16.40
2022-10-03T00:26:27.406Z,16.20
2022-10-03T00:29:32.820Z,16.10
2022-10-03T00:32:12.447Z,16.00
2022-10-03T00:35:06.971Z,16.10
2022-10-03T00:37:39.619Z,16.00
2022-10-03T00:40:20.016Z,15.90
2022-10-03T00:42:53.012Z,15.70
2022-10-03T00:45:50.898Z,15.60
2022-10-03T00:48:38.459Z,15.50
2022-10-03T00:51:26.232Z,15.40
2022-10-03T00:54:07.017Z,15.40
2022-10-03T00:56:54.880Z,15.20
2022-10-03T00:59:30.947Z,15.20
2022-10-03T01:01:59.499Z,15.20
2022-10-03T01:05:02.001Z,15.30
2022-10-03T01:07:33.238Z,15.40
2022-10-03T01:10:22.904Z,15.50
2022-10-03T01:12:52.940Z,15.70
2022-10-03T01:15:48.829Z,15.70
2022-10-03T01:18:21.377Z,15.80
2022-10-03T01:21:07.665Z,15.80
2022-10-03T01:23:46.775Z,15.80
2022-10-03T01:26:34.691Z,15.80
2022-10-03T01:29:33.114Z,15.90
2022-10-03T01:32:09.206Z,15.80
2022-10-03T01:34:42.362Z,15.80
2022-10-03T01:37:30.059Z,15.80
2022-10-03T01:40:19.837Z,15.90
2022-10-03T01:42:56.285Z,15.90
2022-10-03T01:45:29.878Z,16.20
2022-10-03T01:48:15.256Z,16.30
2022-10-03T01:50:58.518Z,16.20
2022-10-03T01:53:48.509Z,16.20
2022-10-03T01:56:48.509Z,16.20
2022-10-03T01:59:35.180Z,16.20
2022-10-03T02:02:13.848Z,16.20
2022-10-03T02:04:50.532Z,16.20
2022-10-03T02:07:35.477Z,16.20
2022-10-03T02:10:21.593Z,16.30
2022-10-03T02:13:19.256Z,16.40
2022-10-03T02:16:04.784Z,16.50
2022-10-03T02:18:54.784Z,16.70
2022-10-03T02:21:27.386Z,16.70
2022-10-03T02:24:14.945Z,16.60
2022-10-03T02:26:51.199Z,16.60
2022-10-03T02:29:39.105Z,16.60
2022-10-03T02:32:37.096Z,16.60
2022-10-03T02:35:27.922Z,16.50
2022-10-03T02:38:18.902Z,16.40
2022-10-03T02:41:05.510Z,16.40
2022-10-03T02:43:44.854Z,16.40
2022-10-03T02:46:33.225Z,16.30
2022-10-03T02:49:12.345Z,16.40
2022-10-03T02:51:48.737Z,16.40
2022-10-03T02:54:49.357Z,16.40
2022-10-03T02:57:41.722Z,16.40
2022-10-03T03:00:23.908Z,16.30
2022-10-03T03:03:06.048Z,16.30
2022-10-03T03:05:53.541Z,16.10
2022-10-03T03:08:44.313Z,16.10
2022-10-03T03:11:27.635Z,16.10
2022-10-03T03:14:22.810Z,16.00
2022-10-03T03:17:08.799Z,16.00
2022-10-03T03:20:13.535Z,15.90
2022-10-03T03:23:03.283Z,15.80
2022-10-03T03:25:55.372Z,15.80
2022-10-03T03:28:25.824Z,15.90
2022-10-03T03:31:09.529Z,15.90
2022-10-03T03:34:04.718Z,16.10
2022-10-03T03:36:41.585Z,16.20
2022-10-03T03:39:40.877Z,16.20
2022-10-03T03:42:22.360Z,16.00
2022-10-03T03:45:07.692Z,15.80
2022-10-03T03:47:43.257Z,15.60
2022-10-03T03:50:28.078Z,15.40
2022-10-03T03:53:24.741Z,15.30
2022-10-03T03:56:07.323Z,15.30
2022-10-03T03:58:40.634Z,15.30
2022-10-03T04:01:17.470Z,15.40
2022-10-03T04:03:53.672Z,15.50
2022-10-03T04:06:46.266Z,15.30
2022-10-03T04:09:28.621Z,15.50
2022-10-03T04:12:18.556Z,15.70
2022-10-03T04:14:56.124Z,15.70
2022-10-03T04:17:59.853Z,15.60
2022-10-03T04:20:45.835Z,15.40
2022-10-03T04:23:37.282Z,15.60
2022-10-03T04:26:18.972Z,15.60
2022-10-03T04:29:07.751Z,15.70
2022-10-03T04:31:57.256Z,15.60
2022-10-03T04:35:09.902Z,15.60
2022-10-03T04:37:48.938Z,15.60
2022-10-03T04:40:24.905Z,15.30
2022-10-03T04:43:16.754Z,15.00
2022-10-03T04:46:06.193Z,14.80
2022-10-03T04:48:58.031Z,14.60
2022-10-03T04:51:28.284Z,14.50
2022-10-03T04:54:04.188Z,14.40
2022-10-03T04:56:57.108Z,14.60
2022-10-03T04:59:44.940Z,14.70
2022-10-03T05:02:27.776Z,14.90
2022-10-03T05:05:21.996Z,15.10
2022-10-03T05:08:02.966Z,15.00
2022-10-03T05:11:05.808Z,14.80
2022-10-03T05:13:51.691Z,14.50
2022-10-03T05:16:29.241Z,14.20
2022-10-03T05:19:24.051Z,14.30
2022-10-03T05:22:30.624Z,14.20
2022-10-03T05:25:18.314Z,14.30
2022-10-03T05:27:59.153Z,14.60
2022-10-03T05:30:53.534Z,14.50
2022-10-03T05:33:43.589Z,14.40
2022-10-03T05:36:25.983Z,14.30
2022-10-03T05:39:20.631Z,14.50
2022-10-03T05:42:17.799Z,14.60
2022-10-03T05:44:43.852Z,14.80
2022-10-03T05:47:42.361Z,14.70
2022-10-03T05:50:30.283Z,14.60
2022-10-03T05:53:36.553Z,14.50
2022-10-03T05:56:26.767Z,14.50
2022-10-03T05:58:57.010Z,14.60
2022-10-03T06:01:50.563Z,14.70
2022-10-03T06:04:36.479Z,14.70
2022-10-03T06:07:25.367Z,14.70
2022-10-03T06:10:07.436Z,14.70
2022-10-03T06:12:49.786Z,14.90
2022-10-03T06:15:39.357Z,15.20
2022-10-03T06:18:32.299Z,15.70
2022-10-03T06:21:36.775Z,16.60
2022-10-03T06:24:35.272Z,17.40
2022-10-03T06:27:05.436Z,18.40
2022-10-03T06:30:05.501Z,18.50
2022-10-03T06:33:03.987Z,19.60
2022-10-03T06:35:50.267Z,20.70
2022-10-03T06:38:34.858Z,21.30
2022-10-03T06:41:23.335Z,21.20
2022-10-03T06:44:18.074Z,22.00
2022-10-03T06:47:22.957Z,22.20
2022-10-03T06:50:14.082Z,22.00
2022-10-03T06:52:52.247Z,20.50
2022-10-03T06:55:56.963Z,19.90
2022-10-03T06:58:43.321Z,19.10
2022-10-03T07:01:48.541Z,18.50
2022-10-03T07:04:40.148Z,18.30
2022-10-03T07:07:13.173Z,17.90
2022-10-03T07:10:01.566Z,17.90
2022-10-03T07:12:46.062Z,17.90
2022-10-03T07:15:19.373Z,17.90
2022-10-03T07:18:10.680Z,18.10
2022-10-03T07:21:08.048Z,18.20
2022-10-03T07:24:02.960Z,18.30
2022-10-03T07:26:54.362Z,18.40
2022-10-03T07:29:50.447Z,18.40
2022-10-03T07:32:34.754Z,18.50
2022-10-03T07:35:53.214Z,18.40
2022-10-03T07:39:09.811Z,18.40
2022-10-03T07:41:47.766Z,18.50
2022-10-03T07:44:33.879Z,18.60
2022-10-03T07:47:50.215Z,18.80
2022-10-03T07:50:44.957Z,18.80
2022-10-03T07:53:34.747Z,18.90
2022-10-03T07:56:34.971Z,19.00
2022-10-03T07:59:11.549Z,19.10
2022-10-03T08:02:02.972Z,19.10
2022-10-03T08:04:36.102Z,19.00
2022-10-03T08:07:20.820Z,19.00
2022-10-03T08:09:54.422Z,19.30
2022-10-03T08:12:49.157Z,19.40
2022-10-03T08:15:39.987Z,19.40
2022-10-03T08:18:26.160Z,19.40
2022-10-03T08:21:29.149Z,19.60
2022-10-03T08:24:00.405Z,19.60
2022-10-03T08:26:33.892Z,19.80
2022-10-03T08:29:25.072Z,19.90
2022-10-03T08:32:21.562Z,20.00
2022-10-03T08:35:11.998Z,20.00
2022-10-03T08:38:10.549Z,19.90
2022-10-03T08:40:59.325Z,20.00
2022-10-03T08:43:51.204Z,20.00
2022-10-03T08:46:47.401Z,20.00
2022-10-03T08:49:45.646Z,20.30
2022-10-03T08:52:39.579Z,20.40
2022-10-03T08:55:33.972Z,20.50
2022-10-03T08:58:25.275Z,20.60
2022-10-03T09:01:17.371Z,20.60
2022-10-03T09:04:09.901Z,20.60
2022-10-03T09:06:58.713Z,20.60
2022-10-03T09:09:39.774Z,20.40
2022-10-03T09:12:34.140Z,20.50
2022-10-03T09:15:16.302Z,20.60
2022-10-03T09:18:22.874Z,20.60
2022-10-03T09:21:15.649Z,20.60
2022-10-03T09:24:18.571Z,20.50
2022-10-03T09:27:12.435Z,20.60
2022-10-03T09:30:04.576Z,20.60
2022-10-03T09:33:05.178Z,20.70
2022-10-03T09:35:56.849Z,20.80
2022-10-03T09:38:45.979Z,20.80
2022-10-03T09:41:45.234Z,20.80
2022-10-03T09:44:43.605Z,20.80
2022-10-03T09:47:33.047Z,20.70
2022-10-03T09:50:00.392Z,20.80
2022-10-03T09:52:39.718Z,20.80
2022-10-03T09:55:25.741Z,20.90
2022-10-03T09:58:16.507Z,21.10
2022-10-03T10:01:27.515Z,21.30
2022-10-03T10:04:01.021Z,21.20
2022-10-03T10:07:11.788Z,21.10
2022-10-03T10:10:00.244Z,21.00
2022-10-03T10:12:39.600Z,21.10
2022-10-03T10:15:28.859Z,21.10
2022-10-03T10:18:29.647Z,21.30
2022-10-03T10:21:34.265Z,21.30
2022-10-03T10:24:01.651Z,21.30
2022-10-03T10:26:47.822Z,21.40
2022-10-03T10:29:56.221Z,21.40
2022-10-03T10:32:51.261Z,21.50
2022-10-03T10:35:33.651Z,21.40
2022-10-03T10:38:12.919Z,21.50
2022-10-03T10:40:55.355Z,21.50
2022-10-03T10:43:34.737Z,21.90
2022-10-03T10:46:37.346Z,21.80
2022-10-03T10:49:42.320Z,21.80
2022-10-03T10:52:31.842Z,22.00
2022-10-03T10:55:23.853Z,22.00
2022-10-03T10:58:28.094Z,21.90
2022-10-03T11:01:10.304Z,21.90
2022-10-03T11:04:15.111Z,22.10
2022-10-03T11:06:53.504Z,22.20
2022-10-03T11:09:54.887Z,22.10
2022-10-03T11:12:45.784Z,22.10
2022-10-03T11:15:33.933Z,22.10
2022-10-03T11:18:08.366Z,22.10
2022-10-03T11:21:07.218Z,22.20
2022-10-03T11:23:52.938Z,22.30
2022-10-03T11:27:02.274Z,22.30
2022-10-03T11:30:07.486Z,22.50
2022-10-03T11:33:12.184Z,22.40
2022-10-03T11:36:13.699Z,22.30
2022-10-03T11:39:03.617Z,22.50
2022-10-03T11:41:43.351Z,22.80
2022-10-03T11:44:22.484Z,22.70
2022-10-03T11:47:03.140Z,22.80
2022-10-03T11:49:49.515Z,22.70
2022-10-03T11:52:25.711Z,22.70
2022-10-03T11:55:18.273Z,22.60
2022-10-03T11:57:59.638Z,22.60
2022-10-03T12:00:33.180Z,22.70
2022-10-03T12:03:09.279Z,22.70
2022-10-03T12:05:42.392Z,22.90
2022-10-03T12:08:53.082Z,23.00
2022-10-03T12:11:41.842Z,22.90
2022-10-03T12:14:21.359Z,23.10
2022-10-03T12:16:58.463Z,23.20
2022-10-03T12:19:34.847Z,23.20
2022-10-03T12:22:09.037Z,23.10
2022-10-03T12:24:45.182Z,23.10
2022-10-03T12:28:00.627Z,23.00
2022-10-03T12:30:45.164Z,23.00
2022-10-03T12:33:43.093Z,23.00
2022-10-03T12:36:29.379Z,22.90
2022-10-03T12:38:59.973Z,23.10
2022-10-03T12:41:52.008Z,23.00
2022-10-03T12:44:46.121Z,22.90
2022-10-03T12:47:50.679Z,23.10
2022-10-03T12:50:50.428Z,23.20
2022-10-03T12:53:17.768Z,23.20
2022-10-03T12:56:03.186Z,23.20
2022-10-03T12:58:56.297Z,23.10
2022-10-03T13:02:00.099Z,23.20
2022-10-03T13:04:39.720Z,23.30
2022-10-03T13:07:44.384Z,23.30
2022-10-03T13:10:20.382Z,23.20
2022-10-03T13:12:55.731Z,23.30
2022-10-03T13:16:08.850Z,23.40
2022-10-03T13:18:43.501Z,23.50
2022-10-03T13:21:46.463Z,23.40
2022-10-03T13:24:32.423Z,23.50
2022-10-03T13:27:19.339Z,23.30
2022-10-03T13:30:24.415Z,23.30
2022-10-03T13:33:00.266Z,23.10
2022-10-03T13:35:58.602Z,23.10
2022-10-03T13:38:47.862Z,23.30
2022-10-03T13:41:27.401Z,23.30
2022-10-03T13:44:17.766Z,23.30
2022-10-03T13:47:14.034Z,23.40
2022-10-03T13:49:55.036Z,23.50
2022-10-03T13:52:29.393Z,23.40
2022-10-03T13:55:02.382Z,23.50
2022-10-03T13:57:55.329Z,23.60
2022-10-03T14:00:29.397Z,23.70
2022-10-03T14:03:19.408Z,23.70
2022-10-03T14:06:10.189Z,23.60
2022-10-03T14:08:53.447Z,23.60
2022-10-03T14:11:43.697Z,23.60
2022-10-03T14:14:34.249Z,23.60
2022-10-03T14:17:11.446Z,23.70
2022-10-03T14:19:50.595Z,23.80
2022-10-03T14:22:52.195Z,23.70
2022-10-03T14:25:30.293Z,23.70
2022-10-03T14:28:28.523Z,23.70
2022-10-03T14:31:17.434Z,23.60
2022-10-03T14:34:10.951Z,23.60
2022-10-03T14:37:08.344Z,23.60
2022-10-03T14:39:59.373Z,23.30
2022-10-03T14:42:54.776Z,23.00
2022-10-03T14:45:29.755Z,23.10
2022-10-03T14:48:14.031Z,23.20
2022-10-03T14:50:42.781Z,23.10
2022-10-03T14:53:12.967Z,23.20
2022-10-03T14:55:47.328Z,23.00
2022-10-03T14:58:22.048Z,22.90
2022-10-03T15:01:14.191Z,23.00
2022-10-03T15:03:53.546Z,23.20
2022-10-03T15:06:39.020Z,23.00
2022-10-03T15:09:12.935Z,23.00
2022-10-03T15:11:52.880Z,22.90
2022-10-03T15:14:23.414Z,22.90
2022-10-03T15:16:56.287Z,23.00
2022-10-03T15:19:38.996Z,23.00
2022-10-03T15:22:21.119Z,23.10
2022-10-03T15:24:51.093Z,23.00
2022-10-03T15:27:21.956Z,22.80
2022-10-03T15:29:59.076Z,22.70
2022-10-03T15:32:37.378Z,22.70
2022-10-03T15:35:06.463Z,22.70
2022-10-03T15:37:45.405Z,22.60
2022-10-03T15:40:44.034Z,22.50
2022-10-03T15:43:28.346Z,22.40
2022-10-03T15:45:57.996Z,22.40
2022-10-03T15:48:28.997Z,22.40
2022-10-03T15:50:58.903Z,22.40
2022-10-03T15:53:37.763Z,22.50
2022-10-03T15:56:17.741Z,22.40
2022-10-03T15:58:52.882Z,22.10
2022-10-03T16:01:47.200Z,22.00
2022-10-03T16:04:29.073Z,21.90
2022-10-03T16:07:22.243Z,21.80
2022-10-03T16:10:14.744Z,21.60
2022-10-03T16:12:59.408Z,21.50
2022-10-03T16:15:37.912Z,21.50
2022-10-03T16:18:48.276Z,21.40
2022-10-03T16:21:30.428Z,21.30
2022-10-03T16:23:59.598Z,21.20
2022-10-03T16:26:41.888Z,21.20
2022-10-03T16:29:23.958Z,21.00
2022-10-03T16:32:18.961Z,21.00
2022-10-03T16:34:48.537Z,20.80
2022-10-03T16:37:23.755Z,20.70
2022-10-03T16:40:06.247Z,20.60
2022-10-03T16:42:42.686Z,20.50
2022-10-03T16:45:33.593Z,20.30
2022-10-03T16:48:28.349Z,20.20
2022-10-03T16:50:56.708Z,20.10
2022-10-03T16:53:24.406Z,19.90
2022-10-03T16:56:15.370Z,19.90
2022-10-03T16:59:10.723Z,19.80
2022-10-03T17:01:50.573Z,19.70
2022-10-03T17:04:37.799Z,19.60
2022-10-03T17:07:23.135Z,19.50
2022-10-03T17:09:52.428Z,19.30
2022-10-03T17:12:27.702Z,19.40
2022-10-03T17:15:02.076Z,19.30
2022-10-03T17:17:48.238Z,19.30
2022-10-03T17:20:47.968Z,19.30
2022-10-03T17:23:53.404Z,19.40
2022-10-03T17:26:34.202Z,19.50
2022-10-03T17:29:24.046Z,19.80
2022-10-03T17:32:00.432Z,20.10
2022-10-03T17:34:33.698Z,20.30
2022-10-03T17:37:28.870Z,20.30
2022-10-03T17:40:17.292Z,20.30
2022-10-03T17:42:52.893Z,20.30
2022-10-03T17:45:44.819Z,20.20
2022-10-03T17:48:19.834Z,20.10
2022-10-03T17:51:31.464Z,20.00
2022-10-03T17:54:06.338Z,20.10
2022-10-03T17:56:35.023Z,20.10
2022-10-03T17:59:14.145Z,20.00
2022-10-03T18:01:44.797Z,20.10
2022-10-03T18:04:19.155Z,20.00
2022-10-03T18:06:51.897Z,20.00
2022-10-03T18:09:40.523Z,19.90
2022-10-03T18:12:17.944Z,19.80
2022-10-03T18:15:02.221Z,19.80
2022-10-03T18:17:44.969Z,19.80
2022-10-03T18:20:50.007Z,19.90
2022-10-03T18:23:49.950Z,19.80
2022-10-03T18:26:38.316Z,19.70
2022-10-03T18:29:27.325Z,19.70
2022-10-03T18:32:21.395Z,19.70
2022-10-03T18:35:19.192Z,19.70
2022-10-03T18:37:46.702Z,19.70
2022-10-03T18:40:26.654Z,19.70
2022-10-03T18:42:55.064Z,19.80
2022-10-03T18:45:30.707Z,19.70
2022-10-03T18:48:11.410Z,19.70
2022-10-03T18:50:50.347Z,19.70
2022-10-03T18:53:57.304Z,19.60
2022-10-03T18:56:27.083Z,19.60
2022-10-03T18:58:54.430Z,19.60
2022-10-03T19:01:46.350Z,19.60
2022-10-03T19:04:20.851Z,19.60
2022-10-03T19:06:53.489Z,19.50
2022-10-03T19:09:29.250Z,19.50
2022-10-03T19:12:20.991Z,19.50
2022-10-03T19:15:12.966Z,19.40
2022-10-03T19:17:55.139Z,19.40
2022-10-03T19:20:29.915Z,19.40
2022-10-03T19:23:19.649Z,19.40
2022-10-03T19:25:53.014Z,19.30
2022-10-03T19:28:30.761Z,19.30
2022-10-03T19:31:17.297Z,19.30
2022-10-03T19:33:52.312Z,19.30
2022-10-03T19:36:22.922Z,19.30
2022-10-03T19:38:53.102Z,19.30
2022-10-03T19:41:28.097Z,19.20
2022-10-03T19:43:57.051Z,19.20
2022-10-03T19:46:47.779Z,19.10
2022-10-03T19:49:44.723Z,19.20
2022-10-03T19:52:41.789Z,19.20
2022-10-03T19:55:24.805Z,19.10
2022-10-03T19:58:20.865Z,19.00
2022-10-03T20:00:56.472Z,18.80
2022-10-03T20:03:38.478Z,18.70
2022-10-03T20:06:11.227Z,18.60
2022-10-03T20:09:00.030Z,18.40
2022-10-03T20:12:00.726Z,18.30
2022-10-03T20:14:36.858Z,18.20
2022-10-03T20:17:14.095Z,18.20
2022-10-03T20:20:09.755Z,18.20
2022-10-03T20:22:37.538Z,18.20
2022-10-03T20:25:18.002Z,18.20
2022-10-03T20:27:53.931Z,18.20
2022-10-03T20:30:46.071Z,18.20
2022-10-03T20:33:24.503Z,18.10
2022-10-03T20:36:06.727Z,18.20
2022-10-03T20:39:02.684Z,18.20
2022-10-03T20:41:42.323Z,18.20
2022-10-03T20:44:27.966Z,18.20
2022-10-03T20:47:07.449Z,18.20
2022-10-03T20:49:42.088Z,18.20
2022-10-03T20:52:18.657Z,18.20
2022-10-03T20:54:50.506Z,18.20
2022-10-03T20:57:28.307Z,18.30
2022-10-03T21:00:19.109Z,18.30
2022-10-03T21:02:55.440Z,18.30
2022-10-03T21:05:36.318Z,18.30
2022-10-03T21:08:11.247Z,18.30
2022-10-03T21:10:43.239Z,18.30
2022-10-03T21:13:53.066Z,18.30
2022-10-03T21:16:22.162Z,18.30
2022-10-03T21:18:52.301Z,18.20
2022-10-03T21:21:26.900Z,18.20
2022-10-03T21:24:17.936Z,18.20
2022-10-03T21:26:55.176Z,18.20
2022-10-03T21:29:29.283Z,18.20
2022-10-03T21:32:21.366Z,18.10
2022-10-03T21:35:16.438Z,18.10
2022-10-03T21:38:03.915Z,18.10
2022-10-03T21:41:03.604Z,18.10
2022-10-03T21:43:43.624Z,18.10
2022-10-03T21:46:17.187Z,18.10
2022-10-03T21:49:05.852Z,18.10
2022-10-03T21:52:00.913Z,18.10
2022-10-03T21:54:48.428Z,18.10
2022-10-03T21:57:43.346Z,18.10
2022-10-03T22:00:26.914Z,18.20
2022-10-03T22:03:05.987Z,18.20
2022-10-03T22:05:49.192Z,18.20
2022-10-03T22:08:30.356Z,18.20
2022-10-03T22:11:19.559Z,18.10
2022-10-03T22:14:16.498Z,18.10
2022-10-03T22:17:21.449Z,18.10
2022-10-03T22:20:12.554Z,18.10
2022-10-03T22:22:49.162Z,18.10
2022-10-03T22:25:29.699Z,18.10
2022-10-03T22:28:32.627Z,18.10
2022-10-03T22:31:15.554Z,18.10
2022-10-03T22:33:50.996Z,18.10
2022-10-03T22:36:19.638Z,18.20
2022-10-03T22:38:49.448Z,18.20
2022-10-03T22:41:21.161Z,18.20
2022-10-03T22:43:49.858Z,18.30
2022-10-03T22:46:25.895Z,18.30
2022-10-03T22:49:06.219Z,18.40
2022-10-03T22:51:35.201Z,18.40
2022-10-03T22:54:09.491Z,18.50
2022-10-03T22:56:45.485Z,18.50
2022-10-03T22:59:22.689Z,18.50
2022-10-03T23:01:52.556Z,18.50
2022-10-03T23:04:50.052Z,18.50
2022-10-03T23:07:26.630Z,18.50
2022-10-03T23:09:56.797Z,18.50
2022-10-03T23:12:30.948Z,18.40
2022-10-03T23:15:01.843Z,18.40
2022-10-03T23:17:50.796Z,18.30
2022-10-03T23:20:33.202Z,18.20
2022-10-03T23:23:05.564Z,18.20
2022-10-03T23:25:50.786Z,18.10
2022-10-03T23:28:25.051Z,18.00
2022-10-03T23:30:54.243Z,18.00
2022-10-03T23:33:33.868Z,18.00
2022-10-03T23:36:13.471Z,17.90
2022-10-03T23:38:40.814Z,17.90
2022-10-03T23:41:23.076Z,17.80
2022-10-03T23:43:56.951Z,17.80
2022-10-03T23:46:30.086Z,17.80
2022-10-03T23:49:00.308Z,17.80
2022-10-03T23:51:32.776Z,17.80
2022-10-03T23:54:04.483Z,17.80
2022-10-03T23:56:34.634Z,17.80
2022-10-03T23:59:07.506Z,17.80
